createdAt,value
2018-03-22T00:02:10.828Z,15.30
2018-03-22T00:04:37.872Z,14.90
2018-03-22T00:07:04.920Z,16.30
2018-03-22T00:09:32.481Z,12.70
2018-03-22T00:11:59.530Z,13.73
2018-03-22T00:14:27.602Z,12.33
2018-03-22T00:16:54.548Z,13.17
2018-03-22T00:19:21.697Z,16.60
2018-03-22T00:21:49.465Z,15.33
2018-03-22T00:24:16.513Z,13.40
2018-03-22T00:26:43.592Z,13.87
2018-03-22T00:29:10.613Z,15.87
2018-03-22T00:31:37.659Z,14.20
2018-03-22T00:34:04.714Z,16.33
2018-03-22T00:36:31.760Z,13.93
2018-03-22T00:38:58.801Z,18.80
2018-03-22T00:41:25.749Z,13.07
2018-03-22T00:43:52.797Z,13.90
2018-03-22T00:46:19.746Z,15.77
2018-03-22T00:48:47.202Z,12.87
2018-03-22T00:51:14.249Z,15.17
2018-03-22T00:53:41.309Z,13.70
2018-03-22T00:56:08.346Z,13.00
2018-03-22T00:58:36.931Z,12.83
2018-03-22T01:01:04.183Z,12.77
2018-03-22T01:03:31.233Z,13.37
2018-03-22T01:05:58.285Z,12.00
2018-03-22T01:08:25.328Z,12.50
2018-03-22T01:10:52.378Z,13.13
2018-03-22T01:13:19.528Z,14.10
2018-03-22T01:15:46.475Z,11.97
2018-03-22T01:18:13.523Z,10.93
2018-03-22T01:20:40.577Z,13.10
2018-03-22T01:23:07.620Z,12.83
2018-03-22T01:25:34.669Z,13.70
2018-03-22T01:28:01.721Z,13.70
2018-03-22T01:30:36.651Z,12.53
2018-03-22T01:33:03.596Z,13.67
2018-03-22T01:35:30.549Z,12.93
2018-03-22T01:37:57.590Z,12.37
2018-03-22T01:40:25.462Z,11.87
2018-03-22T01:42:52.507Z,12.57
2018-03-22T01:45:19.556Z,11.93
2018-03-22T01:47:46.608Z,12.73
2018-03-22T01:50:13.652Z,11.30
2018-03-22T01:52:46.538Z,10.63
2018-03-22T01:55:14.611Z,12.60
2018-03-22T01:57:41.663Z,12.70
2018-03-22T02:00:08.604Z,12.87
2018-03-22T02:02:36.415Z,11.37
2018-03-22T02:05:04.237Z,14.87
2018-03-22T02:07:31.284Z,12.83
2018-03-22T02:09:58.338Z,8.53
2018-03-22T02:12:26.304Z,10.63
2018-03-22T02:14:53.352Z,10.40
2018-03-22T02:17:20.299Z,10.37
2018-03-22T02:19:47.348Z,12.37
2018-03-22T02:22:14.332Z,10.20
2018-03-22T02:24:41.551Z,11.73
2018-03-22T02:27:08.596Z,11.30
2018-03-22T02:29:35.641Z,11.50
2018-03-22T02:32:03.716Z,11.57
2018-03-22T02:34:30.769Z,11.87
2018-03-22T02:37:15.824Z,10.97
2018-03-22T02:39:42.781Z,11.70
2018-03-22T02:42:10.854Z,11.30
2018-03-22T02:44:38.114Z,10.97
2018-03-22T02:47:05.264Z,11.40
2018-03-22T02:49:32.305Z,11.77
2018-03-22T02:52:00.177Z,11.20
2018-03-22T02:54:27.636Z,10.77
2018-03-22T02:56:54.933Z,10.77
2018-03-22T02:59:21.943Z,11.33
2018-03-22T03:01:48.981Z,10.43
2018-03-22T03:04:15.932Z,11.10
2018-03-22T03:06:45.259Z,11.43
2018-03-22T03:09:12.179Z,9.93
2018-03-22T03:11:39.228Z,10.40
2018-03-22T03:14:06.271Z,11.07
2018-03-22T03:16:33.258Z,11.03
2018-03-22T03:19:00.165Z,10.33
2018-03-22T03:21:27.222Z,10.60
2018-03-22T03:23:55.442Z,12.90
2018-03-22T03:26:22.441Z,11.77
2018-03-22T03:28:49.484Z,12.37
2018-03-22T03:31:17.565Z,11.90
2018-03-22T03:33:44.706Z,15.17
2018-03-22T03:36:11.714Z,12.83
2018-03-22T03:38:38.700Z,10.90
2018-03-22T03:41:06.057Z,11.33
2018-03-22T03:43:33.000Z,12.40
2018-03-22T03:46:00.356Z,12.70
2018-03-22T03:48:27.718Z,11.93
2018-03-22T03:50:54.707Z,12.77
2018-03-22T03:53:21.713Z,10.93
2018-03-22T03:55:48.653Z,12.23
2018-03-22T03:58:15.599Z,11.63
2018-03-22T04:00:42.647Z,11.23
2018-03-22T04:03:09.708Z,12.40
2018-03-22T04:05:37.571Z,13.20
2018-03-22T04:08:06.691Z,13.07
2018-03-22T04:10:35.039Z,11.47
2018-03-22T04:13:02.396Z,11.87
2018-03-22T04:15:29.448Z,10.40
2018-03-22T04:17:56.492Z,12.87
2018-03-22T04:20:23.539Z,11.73
2018-03-22T04:22:50.593Z,11.70
2018-03-22T04:25:17.536Z,10.30
2018-03-22T04:27:44.592Z,14.73
2018-03-22T04:30:12.051Z,12.37
2018-03-22T04:32:39.088Z,9.80
2018-03-22T04:35:06.346Z,11.87
2018-03-22T04:37:34.312Z,10.30
2018-03-22T04:40:01.264Z,11.13
2018-03-22T04:42:28.305Z,10.53
2018-03-22T04:44:55.355Z,10.87
2018-03-22T04:47:23.529Z,10.00
2018-03-22T04:49:50.515Z,11.63
2018-03-22T04:52:17.524Z,11.73
2018-03-22T04:54:44.525Z,11.03
2018-03-22T04:57:11.561Z,12.63
2018-03-22T04:59:39.794Z,12.30
2018-03-22T05:02:06.742Z,12.10
2018-03-22T05:04:34.711Z,11.40
2018-03-22T05:07:01.656Z,9.70
2018-03-22T05:09:28.728Z,9.27
2018-03-22T05:11:55.764Z,12.60
2018-03-22T05:14:22.802Z,10.53
2018-03-22T05:16:49.753Z,8.33
2018-03-22T05:19:16.795Z,10.87
2018-03-22T05:21:44.868Z,10.47
2018-03-22T05:24:12.838Z,8.57
2018-03-22T05:26:39.892Z,8.57
2018-03-22T05:29:07.755Z,9.53
2018-03-22T05:31:34.809Z,9.50
2018-03-22T05:34:01.852Z,10.83
2018-03-22T05:36:28.899Z,23.00
2018-03-22T05:38:57.181Z,45.70
2018-03-22T05:41:24.639Z,15.07
2018-03-22T05:43:51.627Z,13.83
2018-03-22T05:46:18.634Z,18.57
2018-03-22T05:48:45.932Z,15.33
2018-03-22T05:51:12.936Z,13.00
2018-03-22T05:53:41.213Z,15.90
2018-03-22T05:56:08.255Z,13.90
2018-03-22T05:58:36.021Z,15.17
2018-03-22T06:01:03.075Z,14.07
2018-03-22T06:03:30.118Z,13.10
2018-03-22T06:05:58.512Z,17.40
2018-03-22T06:08:26.777Z,13.33
2018-03-22T06:10:53.827Z,11.73
2018-03-22T06:13:20.768Z,13.47
2018-03-22T06:15:47.831Z,13.47
2018-03-22T06:18:14.869Z,13.93
2018-03-22T06:20:42.532Z,13.83
2018-03-22T06:23:09.681Z,14.10
2018-03-22T06:25:37.554Z,8.27
2018-03-22T06:28:04.599Z,10.77
2018-03-22T06:30:31.686Z,12.43
2018-03-22T06:32:58.897Z,11.33
2018-03-22T06:35:25.954Z,11.57
2018-03-22T06:37:53.100Z,12.13
2018-03-22T06:40:20.041Z,15.13
2018-03-22T06:42:47.124Z,12.87
2018-03-22T06:45:14.246Z,14.73
2018-03-22T06:47:41.289Z,20.77
2018-03-22T06:50:08.335Z,40.27
2018-03-22T06:52:35.391Z,32.20
2018-03-22T06:55:02.434Z,17.50
2018-03-22T06:57:29.482Z,10.43
2018-03-22T06:59:56.428Z,11.50
2018-03-22T07:02:23.477Z,14.30
2018-03-22T07:04:50.536Z,12.57
2018-03-22T07:07:17.574Z,15.13
2018-03-22T07:09:44.525Z,15.87
2018-03-22T07:12:11.566Z,12.33
2018-03-22T07:14:38.638Z,12.23
2018-03-22T07:17:05.669Z,9.73
2018-03-22T07:19:32.714Z,16.20
2018-03-22T07:21:59.766Z,12.43
2018-03-22T07:24:26.913Z,10.87
2018-03-22T07:26:53.967Z,13.77
2018-03-22T07:29:21.010Z,9.73
2018-03-22T07:31:50.345Z,7.90
2018-03-22T07:34:17.359Z,4.33
2018-03-22T07:36:44.668Z,6.27
2018-03-22T07:39:11.608Z,3.30
2018-03-22T07:41:38.554Z,2.27
2018-03-22T07:44:11.720Z,2.97
2018-03-22T07:46:38.680Z,2.47
2018-03-22T07:49:05.794Z,5.30
2018-03-22T07:51:33.867Z,5.00
2018-03-22T07:54:00.926Z,4.27
2018-03-22T07:56:27.964Z,6.47
2018-03-22T07:58:55.056Z,4.67
2018-03-22T08:01:22.067Z,5.60
2018-03-22T08:03:49.108Z,5.00
2018-03-22T08:06:16.159Z,2.37
2018-03-22T08:08:44.030Z,3.50
2018-03-22T08:11:11.073Z,5.43
2018-03-22T08:13:39.356Z,4.63
2018-03-22T08:16:06.399Z,6.57
2018-03-22T08:18:33.447Z,3.20
2018-03-22T08:21:00.395Z,5.80
2018-03-22T08:23:27.442Z,5.33
2018-03-22T08:25:54.496Z,6.83
2018-03-22T08:28:21.539Z,4.83
2018-03-22T08:30:48.588Z,3.23
2018-03-22T08:33:15.533Z,5.73
2018-03-22T08:35:42.486Z,7.23
2018-03-22T08:38:09.530Z,7.47
2018-03-22T08:40:36.579Z,4.13
2018-03-22T08:43:04.246Z,7.37
2018-03-22T08:45:31.186Z,4.33
2018-03-22T08:47:58.138Z,4.83
2018-03-22T08:50:25.181Z,5.57
2018-03-22T08:52:52.235Z,7.03
2018-03-22T08:55:19.258Z,4.90
2018-03-22T08:57:46.228Z,5.53
2018-03-22T09:00:13.694Z,5.93
2018-03-22T09:02:40.730Z,5.00
2018-03-22T09:05:07.779Z,6.40
2018-03-22T09:07:34.832Z,5.23
2018-03-22T09:10:01.898Z,2.53
2018-03-22T09:12:28.929Z,4.60
2018-03-22T09:14:55.979Z,5.00
2018-03-22T09:17:22.922Z,6.23
2018-03-22T09:19:50.777Z,5.07
2018-03-22T09:22:22.142Z,4.93
2018-03-22T09:24:49.543Z,11.23
2018-03-22T09:27:17.469Z,6.37
2018-03-22T09:29:44.511Z,5.60
2018-03-22T09:32:11.571Z,3.53
2018-03-22T09:34:38.607Z,6.30
2018-03-22T09:37:07.435Z,9.43
2018-03-22T09:39:34.553Z,6.90
2018-03-22T09:42:01.495Z,5.63
2018-03-22T09:44:29.567Z,6.67
2018-03-22T09:46:56.620Z,8.43
2018-03-22T09:49:23.561Z,6.07
2018-03-22T09:51:50.615Z,10.27
2018-03-22T09:54:18.074Z,7.97
2018-03-22T09:56:45.532Z,9.77
2018-03-22T09:59:12.574Z,6.90
2018-03-22T10:01:39.624Z,9.80
2018-03-22T10:04:06.676Z,9.53
2018-03-22T10:06:33.719Z,7.17
2018-03-22T10:09:00.672Z,4.93
2018-03-22T10:11:27.714Z,6.03
2018-03-22T10:13:55.587Z,7.27
2018-03-22T10:16:22.477Z,7.17
2018-03-22T10:18:49.581Z,6.97
2018-03-22T10:21:16.464Z,8.00
2018-03-22T10:23:44.902Z,6.37
2018-03-22T10:26:13.428Z,7.43
2018-03-22T10:28:40.433Z,6.93
2018-03-22T10:31:07.840Z,6.40
2018-03-22T10:33:34.837Z,6.23
2018-03-22T10:36:01.881Z,24.93
2018-03-22T10:38:29.345Z,7.33
2018-03-22T10:40:57.320Z,7.33
2018-03-22T10:43:25.284Z,7.67
2018-03-22T10:45:52.741Z,6.73
2018-03-22T10:48:19.791Z,7.23
2018-03-22T10:50:47.044Z,7.70
2018-03-22T10:53:14.003Z,12.27
2018-03-22T10:55:41.040Z,6.57
2018-03-22T10:58:08.301Z,7.33
2018-03-22T11:00:38.414Z,7.03
2018-03-22T11:03:11.858Z,6.63
2018-03-22T11:05:38.803Z,7.17
2018-03-22T11:08:05.809Z,9.47
2018-03-22T11:10:32.895Z,6.23
2018-03-22T11:12:59.903Z,6.73
2018-03-22T11:15:26.847Z,5.93
2018-03-22T11:17:53.800Z,5.30
2018-03-22T11:20:21.970Z,6.63
2018-03-22T11:22:49.024Z,5.20
2018-03-22T11:25:15.968Z,6.17
2018-03-22T11:27:43.020Z,5.37
2018-03-22T11:30:10.062Z,5.40
2018-03-22T11:32:37.012Z,5.07
2018-03-22T11:35:04.057Z,5.27
2018-03-22T11:37:31.981Z,5.77
2018-03-22T11:39:58.972Z,5.63
2018-03-22T11:42:26.942Z,5.27
2018-03-22T11:44:53.996Z,5.43
2018-03-22T11:47:20.945Z,5.40
2018-03-22T11:49:47.884Z,5.67
2018-03-22T11:52:14.932Z,5.77
2018-03-22T11:54:41.987Z,6.07
2018-03-22T11:57:09.030Z,6.57
2018-03-22T11:59:36.078Z,6.37
2018-03-22T12:02:03.187Z,14.00
2018-03-22T12:04:30.176Z,10.13
2018-03-22T12:06:57.129Z,7.23
2018-03-22T12:09:24.174Z,5.20
2018-03-22T12:11:51.220Z,5.03
2018-03-22T12:14:18.272Z,5.20
2018-03-22T12:16:46.446Z,4.90
2018-03-22T12:19:13.497Z,5.63
2018-03-22T12:21:40.631Z,5.33
2018-03-22T12:24:08.303Z,4.77
2018-03-22T12:26:35.354Z,4.57
2018-03-22T12:29:02.408Z,4.27
2018-03-22T12:31:29.656Z,9.00
2018-03-22T12:33:58.211Z,4.37
2018-03-22T12:36:25.190Z,4.50
2018-03-22T12:38:52.175Z,4.77
2018-03-22T12:41:19.114Z,4.80
2018-03-22T12:43:46.173Z,4.60
2018-03-22T12:46:13.176Z,5.63
2018-03-22T12:48:40.941Z,4.30
2018-03-22T12:51:07.996Z,4.03
2018-03-22T12:53:35.037Z,4.10
2018-03-22T12:56:03.112Z,4.10
2018-03-22T12:58:30.160Z,4.33
2018-03-22T13:00:57.106Z,4.27
2018-03-22T13:03:24.209Z,4.83
2018-03-22T13:05:52.396Z,5.60
2018-03-22T13:08:19.377Z,4.90
2018-03-22T13:10:46.530Z,5.10
2018-03-22T13:13:13.583Z,6.77
2018-03-22T13:15:40.934Z,6.07
2018-03-22T13:18:07.919Z,6.17
2018-03-22T13:20:34.928Z,4.70
2018-03-22T13:23:02.948Z,4.43
2018-03-22T13:25:29.951Z,4.83
2018-03-22T13:27:56.995Z,4.83
2018-03-22T13:30:24.044Z,3.93
2018-03-22T13:32:52.235Z,5.43
2018-03-22T13:35:19.267Z,5.00
2018-03-22T13:37:46.213Z,6.37
2018-03-22T13:43:43.600Z,4.40
2018-03-22T13:46:10.642Z,4.60
2018-03-22T13:48:37.693Z,4.93
2018-03-22T13:51:04.745Z,7.83
2018-03-22T13:53:31.790Z,4.80
2018-03-22T13:55:58.945Z,5.07
2018-03-22T13:58:26.198Z,4.50
2018-03-22T14:00:53.446Z,4.90
2018-03-22T14:03:20.501Z,6.37
2018-03-22T14:05:47.855Z,5.23
2018-03-22T14:08:14.899Z,4.50
2018-03-22T14:10:41.847Z,4.27
2018-03-22T14:13:09.105Z,4.93
2018-03-22T14:15:36.045Z,4.47
2018-03-22T14:18:02.967Z,5.20
2018-03-22T14:20:30.449Z,4.97
2018-03-22T14:22:57.497Z,4.37
2018-03-22T14:25:24.674Z,4.50
2018-03-22T14:27:52.415Z,6.97
2018-03-22T14:30:19.399Z,4.03
2018-03-22T14:32:46.409Z,4.60
2018-03-22T14:35:14.276Z,5.93
2018-03-22T14:37:41.736Z,5.57
2018-03-22T14:40:10.320Z,4.57
2018-03-22T14:42:37.373Z,4.87
2018-03-22T14:45:04.315Z,3.73
2018-03-22T14:47:32.122Z,4.80
2018-03-22T14:49:59.133Z,4.37
2018-03-22T14:52:26.212Z,4.23
2018-03-22T14:54:53.226Z,5.00
2018-03-22T14:57:20.173Z,4.73
2018-03-22T14:59:47.221Z,5.27
2018-03-22T15:02:14.319Z,4.60
2018-03-22T15:04:42.143Z,3.33
2018-03-22T15:07:09.810Z,4.80
2018-03-22T15:09:36.851Z,7.17
2018-03-22T15:12:04.722Z,4.60
2018-03-22T15:14:31.764Z,7.40
2018-03-22T15:16:58.816Z,4.73
2018-03-22T15:19:25.875Z,5.67
2018-03-22T15:21:52.916Z,5.90
2018-03-22T15:24:19.960Z,4.53
2018-03-22T15:26:47.013Z,9.73
2018-03-22T15:31:55.544Z,4.60
2018-03-22T15:34:22.597Z,6.23
2018-03-22T15:36:49.718Z,7.73
2018-03-22T15:39:16.900Z,6.13
2018-03-22T15:41:43.943Z,6.47
2018-03-22T15:44:10.991Z,5.90
2018-03-22T15:46:38.039Z,5.43
2018-03-22T15:49:05.093Z,7.30
2018-03-22T15:51:32.149Z,7.50
2018-03-22T15:53:59.184Z,7.60
2018-03-22T15:56:26.230Z,7.83
2018-03-22T15:58:53.938Z,8.30
2018-03-22T16:01:21.045Z,6.07
2018-03-22T16:03:48.097Z,6.13
2018-03-22T16:06:15.864Z,10.33
2018-03-22T16:08:42.903Z,6.07
2018-03-22T16:11:10.872Z,7.27
2018-03-22T16:13:37.819Z,6.00
2018-03-22T16:16:04.867Z,7.00
2018-03-22T16:18:31.822Z,8.77
2018-03-22T16:20:58.966Z,8.37
2018-03-22T16:23:26.014Z,8.23
2018-03-22T16:25:53.068Z,8.77
2018-03-22T16:28:21.138Z,5.63
2018-03-22T16:30:48.182Z,6.00
2018-03-22T16:33:15.948Z,8.40
2018-03-22T16:35:42.997Z,7.47
2018-03-22T16:38:09.944Z,7.47
2018-03-22T16:40:37.298Z,7.73
2018-03-22T16:43:04.352Z,8.70
2018-03-22T16:45:32.013Z,9.47
2018-03-22T16:47:59.059Z,6.47
2018-03-22T16:50:28.720Z,6.93
2018-03-22T16:52:56.739Z,8.73
2018-03-22T16:55:23.688Z,8.43
2018-03-22T16:57:51.698Z,6.87
2018-03-22T17:00:18.709Z,7.17
2018-03-22T17:02:45.754Z,9.33
2018-03-22T17:05:12.810Z,6.53
2018-03-22T17:07:40.069Z,7.50
2018-03-22T17:10:07.475Z,8.13
2018-03-22T17:12:34.464Z,8.60
2018-03-22T17:15:02.327Z,8.33
2018-03-22T17:17:29.381Z,7.27
2018-03-22T17:19:57.246Z,7.87
2018-03-22T17:22:24.314Z,7.90
2018-03-22T17:24:51.340Z,7.83
2018-03-22T17:27:18.388Z,10.77
2018-03-22T17:29:45.442Z,12.10
2018-03-22T17:32:13.612Z,11.43
2018-03-22T17:34:40.599Z,10.77
2018-03-22T17:37:08.596Z,15.10
2018-03-22T17:39:35.582Z,12.13
2018-03-22T17:42:02.625Z,9.93
2018-03-22T17:44:29.671Z,9.13
2018-03-22T17:46:58.773Z,9.90
2018-03-22T17:49:25.819Z,9.47
2018-03-22T17:51:53.795Z,8.17
2018-03-22T17:54:21.819Z,10.43
2018-03-22T17:56:48.807Z,13.43
2018-03-22T17:59:16.368Z,10.90
2018-03-22T18:01:43.418Z,11.70
2018-03-22T18:04:10.472Z,12.77
2018-03-22T18:06:37.821Z,11.33
2018-03-22T18:09:05.283Z,10.70
2018-03-22T18:14:00.304Z,11.30
2018-03-22T18:16:27.765Z,10.17
2018-03-22T18:18:55.931Z,10.20
2018-03-22T18:21:22.985Z,9.00
2018-03-22T18:23:51.610Z,9.00
2018-03-22T18:26:20.974Z,9.73
2018-03-22T18:28:48.014Z,9.17
2018-03-22T18:31:16.088Z,15.27
2018-03-22T18:33:43.138Z,9.73
2018-03-22T18:36:10.205Z,12.70
2018-03-22T18:38:37.235Z,12.87
2018-03-22T18:41:04.187Z,10.90
2018-03-22T18:43:31.236Z,11.20
2018-03-22T18:45:58.278Z,12.83
2018-03-22T18:48:26.147Z,13.90
2018-03-22T18:50:53.204Z,15.27
2018-03-22T18:53:20.263Z,14.53
2018-03-22T18:55:47.291Z,13.80
2018-03-22T18:58:14.384Z,12.70
2018-03-22T19:00:41.398Z,16.73
2018-03-22T19:03:08.949Z,15.80
2018-03-22T19:05:36.863Z,15.07
2018-03-22T19:08:04.176Z,10.80
2018-03-22T19:10:31.225Z,11.60
2018-03-22T19:12:58.268Z,12.37
2018-03-22T19:15:25.316Z,13.10
2018-03-22T19:17:52.877Z,11.93
2018-03-22T19:20:20.070Z,13.47
2018-03-22T19:22:47.079Z,12.57
2018-03-22T19:25:14.536Z,10.27
2018-03-22T19:27:41.482Z,10.63
2018-03-22T19:30:09.452Z,11.70
2018-03-22T19:32:37.524Z,11.57
2018-03-22T19:35:04.676Z,13.30
2018-03-22T19:37:32.388Z,10.03
2018-03-22T19:40:00.205Z,12.47
2018-03-22T19:42:28.381Z,12.50
2018-03-22T19:44:55.641Z,12.33
2018-03-22T19:47:23.911Z,12.90
2018-03-22T19:49:50.960Z,12.53
2018-03-22T19:52:17.905Z,13.17
2018-03-22T19:54:44.955Z,13.27
2018-03-22T19:57:12.353Z,10.43
2018-03-22T19:59:39.357Z,10.63
2018-03-22T20:02:06.407Z,11.97
2018-03-22T20:04:33.607Z,12.67
2018-03-22T20:07:03.079Z,13.27
2018-03-22T20:09:30.064Z,13.33
2018-03-22T20:11:57.985Z,11.80
2018-03-22T20:14:25.057Z,14.83
2018-03-22T20:16:52.081Z,12.37
2018-03-22T20:19:19.131Z,10.57
2018-03-22T20:21:46.481Z,12.23
2018-03-22T20:24:13.865Z,11.10
2018-03-22T20:26:40.987Z,12.33
2018-03-22T20:29:08.042Z,13.53
2018-03-22T20:31:36.607Z,13.00
2018-03-22T20:34:06.546Z,9.23
2018-03-22T20:36:33.943Z,11.10
2018-03-22T20:39:01.046Z,12.13
2018-03-22T20:41:28.097Z,10.90
2018-03-22T20:43:55.140Z,10.73
2018-03-22T20:46:22.599Z,13.30
2018-03-22T20:48:50.260Z,11.27
2018-03-22T20:51:20.512Z,13.07
2018-03-22T20:53:47.538Z,13.67
2018-03-22T20:56:14.583Z,13.23
2018-03-22T20:58:41.635Z,13.50
2018-03-22T21:01:08.683Z,13.57
2018-03-22T21:03:35.728Z,11.83
2018-03-22T21:06:02.878Z,17.20
2018-03-22T21:08:30.234Z,11.83
2018-03-22T21:10:57.384Z,14.83
2018-03-22T21:13:24.437Z,16.43
2018-03-22T21:15:51.481Z,15.33
2018-03-22T21:18:18.633Z,19.90
2018-03-22T21:21:03.353Z,14.23
2018-03-22T21:23:30.445Z,13.73
2018-03-22T21:25:57.526Z,14.57
2018-03-22T21:28:25.614Z,16.63
2018-03-22T21:30:52.782Z,16.67
2018-03-22T21:33:19.771Z,14.07
2018-03-22T21:35:47.067Z,13.50
2018-03-22T21:38:14.075Z,17.93
2018-03-22T21:40:41.174Z,11.93
2018-03-22T21:43:08.269Z,13.50
2018-03-22T21:45:35.527Z,12.80
2018-03-22T21:48:02.670Z,13.67
2018-03-22T21:50:35.778Z,11.80
2018-03-22T21:53:02.809Z,13.13
2018-03-22T21:55:30.268Z,14.27
2018-03-22T21:57:57.316Z,13.60
2018-03-22T22:00:24.371Z,12.40
2018-03-22T22:02:51.413Z,14.23
2018-03-22T22:05:18.671Z,12.60
2018-03-22T22:07:45.714Z,13.30
2018-03-22T22:10:12.765Z,14.27
2018-03-22T22:12:40.324Z,14.60
2018-03-22T22:15:07.475Z,13.47
2018-03-22T22:17:34.626Z,12.67
2018-03-22T22:20:01.722Z,12.87
2018-03-22T22:22:28.829Z,17.83
2018-03-22T22:24:55.879Z,12.27
2018-03-22T22:27:23.844Z,15.07
2018-03-22T22:29:50.893Z,12.40
2018-03-22T22:32:17.839Z,11.43
2018-03-22T22:34:45.097Z,12.77
2018-03-22T22:37:12.140Z,16.00
2018-03-22T22:39:39.189Z,11.37
2018-03-22T22:42:06.173Z,13.73
2018-03-22T22:44:33.087Z,15.57
2018-03-22T22:47:01.357Z,12.93
2018-03-22T22:49:28.432Z,12.53
2018-03-22T22:51:56.479Z,19.67
2018-03-22T22:54:23.839Z,19.03
2018-03-22T22:56:52.270Z,11.13
2018-03-22T22:59:21.980Z,12.17
2018-03-22T23:01:49.180Z,12.40
2018-03-22T23:04:17.359Z,13.40
2018-03-22T23:06:48.132Z,10.73
2018-03-22T23:09:15.137Z,13.53
2018-03-22T23:11:42.191Z,12.07
2018-03-22T23:14:09.649Z,14.00
2018-03-22T23:16:36.692Z,10.90
2018-03-22T23:19:03.740Z,13.33
2018-03-22T23:21:31.410Z,13.90
2018-03-22T23:23:58.451Z,13.97
2018-03-22T23:26:26.326Z,19.23
2018-03-22T23:28:53.367Z,18.20
2018-03-22T23:31:20.417Z,16.17
2018-03-22T23:33:48.392Z,15.77
2018-03-22T23:36:15.946Z,15.27
2018-03-22T23:38:43.000Z,15.97
2018-03-22T23:41:10.352Z,18.60
2018-03-22T23:43:37.404Z,17.97
2018-03-22T23:46:04.353Z,16.30
2018-03-22T23:48:31.395Z,19.47
2018-03-22T23:50:59.569Z,16.67
2018-03-22T23:53:26.618Z,13.90
2018-03-22T23:55:53.566Z,15.57
2018-03-22T23:58:20.612Z,14.77
